CheckWX is a tool to help pilots better visualize weather data.  It is not intended as a substitute for an official pre-flight weather briefing.

19:05:48 UTC

KOXR TAF
Oxnard Airport
Oxnard, California, USA
KOXR 161745Z 1618/1718 07004KT P6SM SKC FM161900 27009KT P6SM SCT200 FM170300 VRB03KT P6SM SCT200 FM171600 06004KT P6SM SKC

Feb-16@
18:00 UTC

Feb-16 @ 18:00 UTC

Feb-16@
19:00 UTC

Feb-16 @ 19:00 UTC

KOXR 161745Z 1618/1718 07004KT P6SM SKC

Expired

Wind
  • 070° at 4 KTS
Cloud Levels
  • Clear skies

Feb-16@
19:00 UTC

Feb-16 @ 19:00 UTC

Feb-17@
03:00 UTC

Feb-17 @ 03:00 UTC

FM161900 27009KT P6SM SCT200

From

From Standard forecast or significant change

Wind
  • 270° at 9 KTS
Cloud Levels
  • Scattered at 20,000' AGL

Feb-17@
03:00 UTC

Feb-17 @ 03:00 UTC

Feb-17@
16:00 UTC

Feb-17 @ 16:00 UTC

FM170300 VRB03KT P6SM SCT200

From

From Standard forecast or significant change

Wind
  • Variable at 3 KTS
Cloud Levels
  • Scattered at 20,000' AGL

Feb-17@
16:00 UTC

Feb-17 @ 16:00 UTC

Feb-17@
18:00 UTC

Feb-17 @ 18:00 UTC

FM171600 06004KT P6SM SKC

From

From Standard forecast or significant change

Wind
  • 060° at 4 KTS
Cloud Levels
  • Clear skies